Airport View

Enter AWOS ICAO identifier for current METAR.

ex. KFNL

KLOT 212335Z AUTO 18010KT 10SM SCT049 BKN075 OVC095 23/21 A3003 RMK AO2 T02320208

21 Sep 2019 23:48

Frequency: 118.525

Phone: 815-588-4802

Other Area AWOS: KJOT - KC09 - KMDW - KDPA

TAF AMD KMDW 212157Z 2122/2224 19015G25KT P6SM VCSH SCT020 BKN035 FM220000 19012G20KT 5SM SHRA VCTS SCT020 BKN035CB TEMPO 2200/2202 2SM RA BR SCT010 BKN020 FM220200 20012G22KT P6SM VCSH SCT020 BKN035 FM220800 19012G20KT 4SM SHRA BR VCTS BKN025 OVC040CB PROB30 2209/2214 2SM +TSRA BR BKN008 OVC015CB FM221500 22014G24KT 5SM SHRA BR BKN020 OVC035 FM221800 22010KT 4SM -SHRA BR OVC015 PROB30 2218/2224 2SM TSRA BR OVC012CB